createdAt,value
2023-01-20T00:01:50.753Z,13.00
2023-01-20T00:04:21.131Z,12.43
2023-01-20T00:06:48.852Z,11.63
2023-01-20T00:09:17.188Z,12.70
2023-01-20T00:11:44.760Z,12.23
2023-01-20T00:14:12.376Z,11.70
2023-01-20T00:16:39.890Z,12.30
2023-01-20T00:19:07.377Z,12.48
2023-01-20T00:21:38.075Z,14.15
2023-01-20T00:24:05.779Z,13.60
2023-01-20T00:26:33.282Z,12.20
2023-01-20T00:29:00.748Z,11.73
2023-01-20T00:31:29.326Z,12.45
2023-01-20T00:33:58.795Z,13.45
2023-01-20T00:36:27.655Z,12.73
2023-01-20T00:38:55.482Z,13.63
2023-01-20T00:41:22.922Z,13.23
2023-01-20T00:43:50.589Z,12.00
2023-01-20T00:46:18.282Z,12.07
2023-01-20T00:48:45.970Z,11.55
2023-01-20T00:51:13.508Z,11.38
2023-01-20T00:53:41.084Z,11.23
2023-01-20T00:56:09.081Z,11.18
2023-01-20T00:58:36.549Z,10.90
2023-01-20T01:01:04.143Z,11.73
2023-01-20T01:03:31.627Z,11.43
2023-01-20T01:06:09.637Z,11.88
2023-01-20T01:08:37.237Z,11.32
2023-01-20T01:11:05.364Z,11.82
2023-01-20T01:13:33.127Z,12.65
2023-01-20T01:16:00.667Z,11.45
2023-01-20T01:18:28.209Z,11.40
2023-01-20T01:20:55.688Z,10.77
2023-01-20T01:23:23.341Z,12.30
2023-01-20T01:25:50.799Z,11.68
2023-01-20T01:28:18.310Z,12.20
2023-01-20T01:30:45.967Z,12.10
2023-01-20T01:33:13.414Z,11.45
2023-01-20T01:35:40.875Z,11.30
2023-01-20T01:38:08.572Z,12.48
2023-01-20T01:40:36.233Z,12.85
2023-01-20T01:43:03.697Z,12.30
2023-01-20T01:45:31.377Z,12.68
2023-01-20T01:48:25.086Z,12.35
2023-01-20T01:50:54.777Z,12.88
2023-01-20T01:53:23.034Z,12.30
2023-01-20T01:55:54.335Z,13.80
2023-01-20T01:58:24.122Z,12.73
2023-01-20T02:00:51.930Z,12.02
2023-01-20T02:03:19.777Z,10.73
2023-01-20T02:05:49.200Z,11.30
2023-01-20T02:08:16.729Z,11.02
2023-01-20T02:10:44.197Z,10.88
2023-01-20T02:13:11.879Z,10.80
2023-01-20T02:16:01.950Z,11.02
2023-01-20T02:18:58.604Z,11.48
2023-01-20T02:21:35.255Z,11.10
2023-01-20T02:24:20.936Z,10.98
2023-01-20T02:26:48.418Z,10.98
2023-01-20T02:29:35.029Z,11.82
2023-01-20T02:32:19.076Z,11.82
2023-01-20T02:34:46.521Z,11.15
2023-01-20T02:37:19.374Z,11.65
2023-01-20T02:39:53.205Z,11.40
2023-01-20T02:42:24.475Z,11.30
2023-01-20T02:47:26.524Z,10.68
2023-01-20T02:49:56.609Z,11.25
2023-01-20T02:52:28.441Z,10.98
2023-01-20T02:54:57.740Z,11.82
2023-01-20T02:57:54.400Z,10.55
2023-01-20T03:00:32.940Z,12.32
2023-01-20T03:03:01.842Z,12.02
2023-01-20T03:05:33.942Z,10.93
2023-01-20T03:08:03.164Z,12.52
2023-01-20T03:10:31.872Z,13.02
2023-01-20T03:13:02.359Z,12.43
2023-01-20T03:15:36.188Z,12.40
2023-01-20T03:18:03.708Z,11.30
2023-01-20T03:20:31.486Z,11.05
2023-01-20T03:22:59.185Z,10.55
2023-01-20T03:25:26.674Z,12.73
2023-01-20T03:27:54.172Z,12.05
2023-01-20T03:30:22.610Z,12.25
2023-01-20T03:32:50.810Z,12.57
2023-01-20T03:35:18.647Z,13.57
2023-01-20T03:37:46.606Z,13.73
2023-01-20T03:40:15.071Z,11.18
2023-01-20T03:42:46.063Z,11.00
2023-01-20T03:45:20.101Z,11.30
2023-01-20T03:47:47.621Z,10.35
2023-01-20T03:50:29.391Z,11.00
2023-01-20T03:53:20.140Z,10.57
2023-01-20T03:55:50.888Z,11.07
2023-01-20T03:58:20.952Z,11.40
2023-01-20T04:00:50.001Z,10.38
2023-01-20T04:03:20.040Z,10.82
2023-01-20T04:05:48.376Z,11.73
2023-01-20T04:08:17.962Z,10.90
2023-01-20T04:10:46.486Z,11.40
2023-01-20T04:13:14.517Z,11.65
2023-01-20T04:15:44.344Z,10.05
2023-01-20T04:18:16.310Z,12.27
2023-01-20T04:20:48.334Z,10.90
2023-01-20T04:23:25.412Z,11.65
2023-01-20T04:25:52.946Z,10.90
2023-01-20T04:28:20.432Z,11.52
2023-01-20T04:30:48.547Z,11.18
2023-01-20T04:33:16.043Z,11.18
2023-01-20T04:35:43.569Z,11.18
2023-01-20T04:38:10.983Z,12.00
2023-01-20T04:40:38.451Z,10.45
2023-01-20T04:43:06.008Z,10.55
2023-01-20T04:45:33.519Z,10.80
2023-01-20T04:48:00.990Z,11.70
2023-01-20T04:50:28.451Z,21.02
2023-01-20T04:52:56.120Z,12.13
2023-01-20T04:55:23.584Z,10.32
2023-01-20T04:57:51.189Z,12.25
2023-01-20T05:00:20.487Z,11.07
2023-01-20T05:02:48.047Z,10.95
2023-01-20T05:05:15.989Z,10.98
2023-01-20T05:07:43.739Z,13.30
2023-01-20T05:10:13.174Z,12.38
2023-01-20T05:12:41.159Z,10.35
2023-01-20T05:15:08.825Z,12.88
2023-01-20T05:17:36.320Z,12.38
2023-01-20T05:20:04.315Z,12.32
2023-01-20T05:22:33.199Z,12.13
2023-01-20T05:25:00.851Z,11.77
2023-01-20T05:27:28.316Z,11.68
2023-01-20T05:29:55.771Z,12.23
2023-01-20T05:32:23.332Z,13.02
2023-01-20T05:34:50.955Z,11.68
2023-01-20T05:37:18.908Z,12.25
2023-01-20T05:39:46.500Z,14.05
2023-01-20T05:42:14.208Z,13.68
2023-01-20T05:44:41.753Z,12.00
2023-01-20T05:47:09.249Z,13.93
2023-01-20T05:49:36.732Z,14.15
2023-01-20T05:52:04.282Z,13.75
2023-01-20T05:54:31.739Z,12.90
2023-01-20T05:56:59.523Z,14.07
2023-01-20T05:59:27.184Z,14.10
2023-01-20T06:01:54.644Z,13.25
2023-01-20T06:04:22.159Z,13.45
2023-01-20T06:06:49.671Z,14.52
2023-01-20T06:09:17.123Z,13.85
2023-01-20T06:11:44.616Z,16.20
2023-01-20T06:14:12.262Z,15.05
2023-01-20T06:16:39.779Z,13.77
2023-01-20T06:19:07.315Z,13.52
2023-01-20T06:21:34.955Z,13.82
2023-01-20T06:24:02.461Z,13.57
2023-01-20T06:26:29.942Z,13.70
2023-01-20T06:29:01.400Z,13.35
2023-01-20T06:31:29.184Z,12.32
2023-01-20T06:33:56.741Z,12.57
2023-01-20T06:36:24.499Z,11.93
2023-01-20T06:38:52.973Z,13.57
2023-01-20T06:41:21.199Z,14.60
2023-01-20T06:43:50.182Z,13.98
2023-01-20T06:46:17.870Z,13.75
2023-01-20T06:48:45.925Z,14.98
2023-01-20T06:51:15.217Z,13.90
2023-01-20T06:53:43.037Z,12.30
2023-01-20T06:56:11.889Z,12.15
2023-01-20T06:58:43.144Z,11.93
2023-01-20T07:03:38.323Z,12.88
2023-01-20T07:06:12.979Z,12.77
2023-01-20T07:08:40.476Z,12.73
2023-01-20T07:11:08.034Z,12.13
2023-01-20T07:13:35.575Z,13.27
2023-01-20T07:16:03.343Z,13.25
2023-01-20T07:18:30.858Z,11.63
2023-01-20T07:20:58.457Z,11.82
2023-01-20T07:23:25.922Z,12.77
2023-01-20T07:26:02.807Z,12.23
2023-01-20T07:28:30.809Z,12.32
2023-01-20T07:31:03.697Z,11.93
2023-01-20T07:33:31.821Z,12.57
2023-01-20T07:35:59.288Z,11.80
2023-01-20T07:38:26.808Z,13.05
2023-01-20T07:40:57.431Z,13.70
2023-01-20T07:43:25.137Z,13.63
2023-01-20T07:45:56.371Z,13.27
2023-01-20T07:51:01.827Z,11.48
2023-01-20T07:53:29.933Z,12.23
2023-01-20T07:55:57.542Z,11.55
2023-01-20T07:58:25.124Z,13.30
2023-01-20T08:00:52.659Z,11.45
2023-01-20T08:03:20.182Z,13.07
2023-01-20T08:05:47.657Z,11.52
2023-01-20T08:08:15.180Z,11.35
2023-01-20T08:10:42.701Z,12.25
2023-01-20T08:13:11.218Z,11.48
2023-01-20T08:15:38.702Z,12.18
2023-01-20T08:18:06.191Z,12.57
2023-01-20T08:20:33.875Z,12.77
2023-01-20T08:23:01.479Z,13.30
2023-01-20T08:25:28.930Z,12.57
2023-01-20T08:27:56.403Z,12.05
2023-01-20T08:30:23.925Z,13.02
2023-01-20T08:32:51.594Z,13.23
2023-01-20T08:35:19.519Z,13.02
2023-01-20T08:37:47.111Z,12.75
2023-01-20T08:40:14.699Z,13.38
2023-01-20T08:42:42.193Z,11.88
2023-01-20T08:45:10.211Z,11.82
2023-01-20T08:47:38.572Z,12.05
2023-01-20T08:50:07.487Z,13.50
2023-01-20T08:52:35.315Z,13.10
2023-01-20T08:55:02.822Z,12.15
2023-01-20T08:57:30.273Z,11.45
2023-01-20T08:59:57.739Z,13.00
2023-01-20T09:02:25.292Z,10.82
2023-01-20T09:04:52.916Z,12.45
2023-01-20T09:07:20.434Z,11.95
2023-01-20T09:09:47.935Z,12.32
2023-01-20T09:12:15.340Z,12.60
2023-01-20T09:14:42.877Z,14.13
2023-01-20T09:17:10.345Z,13.15
2023-01-20T09:19:37.800Z,12.68
2023-01-20T09:22:05.281Z,13.32
2023-01-20T09:24:32.971Z,13.23
2023-01-20T09:27:00.413Z,13.32
2023-01-20T09:29:27.941Z,12.70
2023-01-20T09:31:59.174Z,12.20
2023-01-20T09:36:58.597Z,12.32
2023-01-20T09:39:44.855Z,13.55
2023-01-20T09:42:42.065Z,13.63
2023-01-20T09:45:25.127Z,13.05
2023-01-20T09:47:54.899Z,13.80
2023-01-20T09:50:44.008Z,13.80
2023-01-20T09:53:17.317Z,13.73
2023-01-20T09:55:50.835Z,14.45
2023-01-20T09:58:18.311Z,15.70
2023-01-20T10:00:48.405Z,13.82
2023-01-20T10:03:22.896Z,14.57
2023-01-20T10:05:51.490Z,14.80
2023-01-20T10:08:59.655Z,15.88
2023-01-20T10:11:38.024Z,14.35
2023-01-20T10:14:21.813Z,14.77
2023-01-20T10:16:57.282Z,14.38
2023-01-20T10:19:36.633Z,14.55
2023-01-20T10:22:18.682Z,14.18
2023-01-20T10:24:52.907Z,14.90
2023-01-20T10:27:20.380Z,14.73
2023-01-20T10:29:54.941Z,14.05
2023-01-20T10:32:25.654Z,14.82
2023-01-20T10:34:56.729Z,15.32
2023-01-20T10:40:01.799Z,14.15
2023-01-20T10:42:29.504Z,16.80
2023-01-20T10:44:57.020Z,14.88
2023-01-20T10:47:26.042Z,15.23
2023-01-20T10:50:07.199Z,15.30
2023-01-20T10:52:53.621Z,14.65
2023-01-20T10:55:37.717Z,15.45
2023-01-20T10:58:37.605Z,15.18
2023-01-20T11:01:09.258Z,15.25
2023-01-20T11:03:38.324Z,14.40
2023-01-20T11:06:06.979Z,14.82
2023-01-20T11:08:34.858Z,16.98
2023-01-20T11:11:12.390Z,15.05
2023-01-20T11:13:39.905Z,15.48
2023-01-20T11:16:13.674Z,16.05
2023-01-20T11:18:41.215Z,14.80
2023-01-20T11:21:13.393Z,16.83
2023-01-20T11:23:42.539Z,16.23
2023-01-20T11:26:19.377Z,15.98
2023-01-20T11:29:10.249Z,16.60
2023-01-20T11:31:42.902Z,15.57
2023-01-20T11:34:30.933Z,23.08
2023-01-20T11:37:07.547Z,15.52
2023-01-20T11:39:36.701Z,16.55
2023-01-20T11:42:17.433Z,16.73
2023-01-20T11:44:47.389Z,15.13
2023-01-20T11:47:26.226Z,15.02
2023-01-20T11:50:05.577Z,14.10
2023-01-20T11:52:33.790Z,14.57
2023-01-20T11:55:13.191Z,14.68
2023-01-20T11:57:44.576Z,14.18
2023-01-20T12:00:30.944Z,13.18
2023-01-20T12:03:00.654Z,12.32
2023-01-20T12:05:36.021Z,12.60
2023-01-20T12:08:04.949Z,12.85
2023-01-20T12:10:36.328Z,14.05
2023-01-20T12:13:06.483Z,13.68
2023-01-20T12:15:35.376Z,11.07
2023-01-20T12:18:11.957Z,10.52
2023-01-20T12:20:55.507Z,12.20
2023-01-20T12:23:23.413Z,10.85
2023-01-20T12:25:58.384Z,9.90
2023-01-20T12:28:25.836Z,10.20
2023-01-20T12:30:53.324Z,8.75
2023-01-20T12:33:22.465Z,8.32
2023-01-20T12:36:13.354Z,7.82
2023-01-20T12:38:44.030Z,7.97
2023-01-20T12:41:17.843Z,7.97
2023-01-20T12:43:55.440Z,8.82
2023-01-20T12:46:29.847Z,9.60
2023-01-20T12:49:11.544Z,8.73
2023-01-20T12:51:44.016Z,8.68
2023-01-20T12:54:46.937Z,8.55
2023-01-20T12:57:18.725Z,8.35
2023-01-20T12:59:46.219Z,8.25
2023-01-20T13:02:18.483Z,8.23
2023-01-20T13:04:48.883Z,7.60
2023-01-20T13:07:22.219Z,8.53
2023-01-20T13:09:55.712Z,8.82
2023-01-20T13:12:23.159Z,8.30
2023-01-20T13:14:59.306Z,7.72
2023-01-20T13:17:38.562Z,7.60
2023-01-20T13:20:12.237Z,7.18
2023-01-20T13:22:39.943Z,7.28
2023-01-20T13:25:14.449Z,6.80
2023-01-20T13:27:42.329Z,10.93
2023-01-20T13:30:29.933Z,8.30
2023-01-20T13:33:05.526Z,7.50
2023-01-20T13:35:35.324Z,7.20
2023-01-20T13:38:03.223Z,7.28
2023-01-20T13:40:36.796Z,6.80
2023-01-20T13:43:04.825Z,6.97
2023-01-20T13:45:32.263Z,9.57
2023-01-20T13:48:22.045Z,5.32
2023-01-20T13:50:50.289Z,4.93
2023-01-20T13:53:20.951Z,5.28
2023-01-20T13:55:48.445Z,4.47
2023-01-20T13:58:15.888Z,4.95
2023-01-20T14:00:43.841Z,5.43
2023-01-20T14:03:20.467Z,5.25
2023-01-20T14:05:52.092Z,4.80
2023-01-20T14:08:20.626Z,4.60
2023-01-20T14:10:48.372Z,4.72
2023-01-20T14:13:20.392Z,4.93
2023-01-20T14:15:57.129Z,4.43
2023-01-20T14:18:26.409Z,5.35
2023-01-20T14:21:03.642Z,5.03
2023-01-20T14:23:31.490Z,12.63
2023-01-20T14:26:12.402Z,25.67
2023-01-20T14:28:47.493Z,13.85
2023-01-20T14:31:16.515Z,10.63
2023-01-20T14:34:01.418Z,7.30
2023-01-20T14:36:33.121Z,6.63
2023-01-20T14:39:03.930Z,6.03
2023-01-20T14:43:59.839Z,6.50
2023-01-20T14:46:28.646Z,5.47
2023-01-20T14:48:56.476Z,6.45
2023-01-20T14:51:24.137Z,4.95
2023-01-20T14:54:30.986Z,5.75
2023-01-20T14:56:59.535Z,5.43
2023-01-20T14:59:27.480Z,6.25
2023-01-20T15:01:56.019Z,6.15
2023-01-20T15:04:23.839Z,5.20
2023-01-20T15:06:52.242Z,5.00
2023-01-20T15:09:30.473Z,4.93
2023-01-20T15:12:16.760Z,4.30
2023-01-20T15:14:56.863Z,4.13
2023-01-20T15:17:24.377Z,4.45
2023-01-20T15:19:52.694Z,3.92
2023-01-20T15:22:22.078Z,3.67
2023-01-20T15:24:50.451Z,4.05
2023-01-20T15:27:22.863Z,3.45
2023-01-20T15:30:05.117Z,4.18
2023-01-20T15:32:32.571Z,4.65
2023-01-20T15:35:00.138Z,4.55
2023-01-20T15:37:27.627Z,7.30
2023-01-20T15:39:55.118Z,7.43
2023-01-20T15:42:24.213Z,10.45
2023-01-20T15:44:51.744Z,8.55
2023-01-20T15:47:21.109Z,10.38
2023-01-20T15:49:48.630Z,9.85
2023-01-20T15:52:16.269Z,10.90
2023-01-20T15:54:43.699Z,7.63
2023-01-20T15:57:15.008Z,8.32
2023-01-20T15:59:46.233Z,10.18
2023-01-20T16:04:41.044Z,20.20
2023-01-20T16:07:11.319Z,23.40
2023-01-20T16:09:39.009Z,9.60
2023-01-20T16:12:06.586Z,8.70
2023-01-20T16:14:34.047Z,9.02
2023-01-20T16:17:01.563Z,9.25
2023-01-20T16:19:29.033Z,8.52
2023-01-20T16:21:56.481Z,8.75
2023-01-20T16:24:24.005Z,9.65
2023-01-20T16:26:51.455Z,8.88
2023-01-20T16:29:18.887Z,9.00
2023-01-20T16:31:46.346Z,10.38
2023-01-20T16:34:13.802Z,9.68
2023-01-20T16:36:41.351Z,10.13
2023-01-20T16:39:10.104Z,10.90
2023-01-20T16:41:37.894Z,12.15
2023-01-20T16:44:05.542Z,12.73
2023-01-20T16:46:33.303Z,11.70
2023-01-20T16:49:01.942Z,12.88
2023-01-20T16:51:30.486Z,12.95
2023-01-20T16:53:58.442Z,11.77
2023-01-20T16:56:28.369Z,12.55
2023-01-20T16:59:01.291Z,13.20
2023-01-20T17:01:29.539Z,12.88
2023-01-20T17:04:00.968Z,12.82
2023-01-20T17:06:29.944Z,11.55
2023-01-20T17:08:58.667Z,12.20
2023-01-20T17:11:33.278Z,11.57
2023-01-20T17:14:02.258Z,12.68
2023-01-20T17:16:29.774Z,15.80
2023-01-20T17:18:58.471Z,14.80
2023-01-20T17:21:27.001Z,13.27
2023-01-20T17:23:55.507Z,13.32
2023-01-20T17:26:23.353Z,12.75
2023-01-20T17:28:54.657Z,11.32
2023-01-20T17:33:50.334Z,13.38
2023-01-20T17:36:18.321Z,14.00
2023-01-20T17:38:46.238Z,14.10
2023-01-20T17:41:14.459Z,14.15
2023-01-20T17:43:44.013Z,13.23
2023-01-20T17:46:12.831Z,12.82
2023-01-20T17:48:40.307Z,12.93
2023-01-20T17:51:11.964Z,12.55
2023-01-20T17:53:39.711Z,12.77
2023-01-20T17:56:12.815Z,12.48
2023-01-20T17:58:41.287Z,11.25
2023-01-20T18:01:14.753Z,12.20
2023-01-20T18:03:43.199Z,12.40
2023-01-20T18:06:11.738Z,14.57
2023-01-20T18:08:39.713Z,16.42
2023-01-20T18:11:11.446Z,19.83
2023-01-20T18:13:39.238Z,20.10
2023-01-20T18:16:07.452Z,20.58
2023-01-20T18:18:34.975Z,15.65
2023-01-20T18:21:21.718Z,13.65
2023-01-20T18:23:49.985Z,13.73
2023-01-20T18:26:18.282Z,15.43
2023-01-20T18:28:47.819Z,14.55
2023-01-20T18:31:16.863Z,15.45
2023-01-20T18:33:47.371Z,15.73
2023-01-20T18:36:17.649Z,15.52
2023-01-20T18:38:49.871Z,16.23
2023-01-20T18:41:17.794Z,15.55
2023-01-20T18:43:45.897Z,14.95
2023-01-20T18:46:13.659Z,16.60
2023-01-20T18:48:41.764Z,14.15
2023-01-20T18:51:14.780Z,14.85
2023-01-20T18:53:43.398Z,16.40
2023-01-20T18:56:12.323Z,14.98
2023-01-20T18:58:42.824Z,14.45
2023-01-20T19:01:11.826Z,13.55
2023-01-20T19:03:40.026Z,13.45
2023-01-20T19:06:10.779Z,14.18
2023-01-20T19:08:39.080Z,14.77
2023-01-20T19:11:08.871Z,13.85
2023-01-20T19:13:36.389Z,14.82
2023-01-20T19:16:05.149Z,15.32
2023-01-20T19:18:32.782Z,15.38
2023-01-20T19:21:07.260Z,15.32
2023-01-20T19:23:34.831Z,16.80
2023-01-20T19:26:03.785Z,15.23
2023-01-20T19:28:31.296Z,15.90
2023-01-20T19:31:08.576Z,15.32
2023-01-20T19:33:36.679Z,15.68
2023-01-20T19:36:05.644Z,16.05
2023-01-20T19:38:34.122Z,16.02
2023-01-20T19:41:05.613Z,16.52
2023-01-20T19:43:33.383Z,17.52
2023-01-20T19:46:05.234Z,16.10
2023-01-20T19:48:32.748Z,18.00
2023-01-20T19:51:04.229Z,17.45
2023-01-20T19:53:32.014Z,17.23
2023-01-20T19:56:09.715Z,18.85
2023-01-20T19:58:37.735Z,19.40
2023-01-20T20:01:09.264Z,18.38
2023-01-20T20:03:37.287Z,18.05
2023-01-20T20:06:05.326Z,17.05
2023-01-20T20:08:33.504Z,17.42
2023-01-20T20:11:01.047Z,17.77
2023-01-20T20:13:28.700Z,17.50
2023-01-20T20:16:05.563Z,17.70
2023-01-20T20:18:33.244Z,18.40
2023-01-20T20:21:00.700Z,17.10
2023-01-20T20:23:29.753Z,16.30
2023-01-20T20:25:57.327Z,15.57
2023-01-20T20:28:25.339Z,17.63
2023-01-20T20:30:55.394Z,17.95
2023-01-20T20:33:23.601Z,16.63
2023-01-20T20:35:51.177Z,18.33
2023-01-20T20:38:18.697Z,16.05
2023-01-20T20:40:46.314Z,15.20
2023-01-20T20:43:13.823Z,15.40
2023-01-20T20:45:41.227Z,14.13
2023-01-20T20:48:10.102Z,15.40
2023-01-20T20:50:37.590Z,13.88
2023-01-20T20:53:05.081Z,13.75
2023-01-20T20:55:32.508Z,13.90
2023-01-20T20:57:59.929Z,14.38
2023-01-20T21:00:28.150Z,13.48
2023-01-20T21:02:56.883Z,14.18
2023-01-20T21:05:24.478Z,14.98
2023-01-20T21:07:51.936Z,15.15
2023-01-20T21:10:21.071Z,14.68
2023-01-20T21:12:48.612Z,15.15
2023-01-20T21:15:17.814Z,15.00
2023-01-20T21:17:45.344Z,14.75
2023-01-20T21:20:13.129Z,14.65
2023-01-20T21:22:40.716Z,13.77
2023-01-20T21:25:08.584Z,14.20
2023-01-20T21:27:36.326Z,13.27
2023-01-20T21:30:03.928Z,14.20
2023-01-20T21:32:31.527Z,13.18
2023-01-20T21:35:01.741Z,13.95
2023-01-20T21:37:29.224Z,14.93
2023-01-20T21:39:56.629Z,13.90
2023-01-20T21:42:24.103Z,15.77
2023-01-20T21:44:51.589Z,15.68
2023-01-20T21:47:19.076Z,16.13
2023-01-20T21:50:05.270Z,14.98
2023-01-20T21:52:42.322Z,15.35
2023-01-20T21:55:11.574Z,14.15
2023-01-20T21:57:39.082Z,14.50
2023-01-20T22:00:08.583Z,13.02
2023-01-20T22:02:45.625Z,11.68
2023-01-20T22:05:13.865Z,11.90
2023-01-20T22:07:41.336Z,13.40
2023-01-20T22:10:09.323Z,13.52
2023-01-20T22:12:37.291Z,14.35
2023-01-20T22:15:05.072Z,12.50
2023-01-20T22:17:32.593Z,15.18
2023-01-20T22:20:00.144Z,15.63
2023-01-20T22:22:27.617Z,14.63
2023-01-20T22:24:55.126Z,12.65
2023-01-20T22:27:22.557Z,12.75
2023-01-20T22:29:50.037Z,12.70
2023-01-20T22:32:17.467Z,13.35
2023-01-20T22:34:44.960Z,11.95
2023-01-20T22:37:12.400Z,12.13
2023-01-20T22:39:39.814Z,10.40
2023-01-20T22:42:08.003Z,10.48
2023-01-20T22:44:35.447Z,9.65
2023-01-20T22:47:05.649Z,9.32
2023-01-20T22:49:33.150Z,8.70
2023-01-20T22:52:00.644Z,8.93
2023-01-20T22:54:28.113Z,9.93
2023-01-20T22:56:55.577Z,9.77
2023-01-20T22:59:23.087Z,8.38
2023-01-20T23:01:50.986Z,9.85
2023-01-20T23:04:18.553Z,11.05
2023-01-20T23:06:46.026Z,10.75
2023-01-20T23:09:14.440Z,12.80
2023-01-20T23:11:42.123Z,12.20
2023-01-20T23:14:12.692Z,11.57
2023-01-20T23:16:41.039Z,12.70
2023-01-20T23:19:08.591Z,12.05
2023-01-20T23:21:36.147Z,13.57
2023-01-20T23:24:03.659Z,13.30
2023-01-20T23:26:31.307Z,12.60
2023-01-20T23:28:59.024Z,13.98
2023-01-20T23:31:28.546Z,12.73
2023-01-20T23:33:56.137Z,12.60
2023-01-20T23:36:25.127Z,13.27
2023-01-20T23:38:56.603Z,13.57
2023-01-20T23:41:24.565Z,12.40
2023-01-20T23:43:52.161Z,12.38
2023-01-20T23:46:19.746Z,12.40
2023-01-20T23:48:47.581Z,13.15
2023-01-20T23:51:15.575Z,13.68
2023-01-20T23:53:43.314Z,16.00
2023-01-20T23:56:15.463Z,18.08
2023-01-20T23:58:43.069Z,15.07
